| time (UTC) | temp F | wind direction | speed MPH | gust MPH | rain 1hr in | rain 24hr in | rain mn in | humidity % | barometer mb |
| 20260507193132 | 66 | 12 | 1.0 | 5.0 | 0.00 | 0.00 | 0.00 | 20 | 1023.6 |
| 20260507192630 | 66 | 96 | 2.0 | 8.0 | 0.00 | 0.00 | 0.00 | 19 | 1023.6 |
| 20260507192147 | 66 | 65 | 2.0 | 8.0 | 0.00 | 0.00 | 0.00 | 19 | 1023.7 |
| 20260507191645 | 66 | 47 | 4.0 | 7.0 | 0.00 | 0.00 | 0.00 | 19 | 1023.7 |
| 20260507191142 | 66 | 54 | 2.0 | 6.0 | 0.00 | 0.00 | 0.00 | 19 | 1023.7 |
| 20260507190643 | 66 | 58 | 3.0 | 9.0 | 0.00 | 0.00 | 0.00 | 20 | 1023.8 |
| 20260507190203 | 67 | 82 | 5.0 | 9.0 | 0.00 | 0.00 | 0.00 | 20 | 1024.0 |
| 20260507185700 | 66 | 349 | 1.0 | 5.0 | 0.00 | 0.00 | 0.00 | 20 | 1023.8 |
| 20260507185137 | 66 | 58 | 3.0 | 8.0 | 0.00 | 0.00 | 0.00 | 20 | 1024.0 |
| 20260507184635 | 66 | 43 | 4.0 | 8.0 | 0.00 | 0.00 | 0.00 | 20 | 1024.0 |
| 20260507184134 | 66 | 71 | 2.0 | 5.0 | 0.00 | 0.00 | 0.00 | 20 | 1024.0 |
| 20260507183631 | 65 | 25 | 3.0 | 5.0 | 0.00 | 0.00 | 0.00 | 20 | 1024.1 |
| 20260507183128 | 65 | 77 | 2.0 | 5.0 | 0.00 | 0.00 | 0.00 | 22 | 1024.0 |
| 20260507182646 | 65 | 108 | 3.0 | 6.0 | 0.00 | 0.00 | 0.00 | 21 | 1024.1 |
| 20260507182143 | 65 | 72 | 3.0 | 6.0 | 0.00 | 0.00 | 0.00 | 20 | 1024.0 |
| 20260507181701 | 66 | 106 | 2.0 | 4.0 | 0.00 | 0.00 | 0.00 | 21 | 1024.1 |
| 20260507181138 | 67 | 94 | 2.0 | 4.0 | 0.00 | 0.00 | 0.00 | 21 | 1024.2 |
| 20260507180636 | 66 | 46 | 1.0 | 3.0 | 0.00 | 0.00 | 0.00 | 21 | 1024.1 |
| 20260507180134 | 65 | 131 | 1.0 | 6.0 | 0.00 | 0.00 | 0.00 | 21 | 1024.2 |
| 20260507175654 | 64 | 67 | 3.0 | 6.0 | 0.00 | 0.00 | 0.00 | 22 | 1024.2 |
| 20260507175131 | 64 | 41 | 1.0 | 5.0 | 0.00 | 0.00 | 0.00 | 21 | 1024.2 |
| 20260507174709 | 64 | 64 | 2.0 | 7.0 | 0.00 | 0.00 | 0.00 | 21 | 1024.3 |
| 20260507174147 | 65 | 43 | 3.0 | 7.0 | 0.00 | 0.00 | 0.00 | 20 | 1024.3 |
| 20260507173644 | 65 | 336 | 2.0 | 4.0 | 0.00 | 0.00 | 0.00 | 23 | 1024.1 |
| 20260507173202 | 64 | 103 | 1.0 | 4.0 | 0.00 | 0.00 | 0.00 | 23 | 1024.1 |
| 20260507172640 | 64 | 352 | 2.0 | 6.0 | 0.00 | 0.00 | 0.00 | 23 | 1024.2 |
| 20260507172142 | 64 | 31 | 4.0 | 7.0 | 0.00 | 0.00 | 0.00 | 19 | 1024.2 |
| 20260507171639 | 65 | 41 | 3.0 | 7.0 | 0.00 | 0.00 | 0.00 | 22 | 1024.0 |
| 20260507171137 | 64 | 75 | 1.0 | 5.0 | 0.00 | 0.00 | 0.00 | 23 | 1024.1 |
| 20260507170635 | 64 | 60 | 3.0 | 5.0 | 0.00 | 0.00 | 0.00 | 24 | 1024.1 |
| 20260507170210 | 63 | 56 | 3.0 | 6.0 | 0.00 | 0.00 | 0.00 | 24 | 1024.1 |
| 20260507165646 | 63 | 41 | 2.0 | 6.0 | 0.00 | 0.00 | 0.00 | 26 | 1024.0 |
| 20260507165144 | 63 | 334 | 3.0 | 5.0 | 0.00 | 0.00 | 0.00 | 25 | 1024.0 |
| 20260507164642 | 63 | 66 | 1.0 | 4.0 | 0.00 | 0.00 | 0.00 | 28 | 1023.9 |
| 20260507164201 | 63 | 41 | 1.0 | 4.0 | 0.00 | 0.00 | 0.00 | 27 | 1024.0 |
| 20260507163638 | 63 | 41 | 2.0 | 4.0 | 0.00 | 0.00 | 0.00 | 27 | 1024.0 |
| 20260507163136 | 63 | 69 | 1.0 | 4.0 | 0.00 | 0.00 | 0.00 | 29 | 1024.0 |
| 20260507162634 | 63 | 57 | 2.0 | 4.0 | 0.00 | 0.00 | 0.00 | 27 | 1024.0 |
| 20260507162152 | 62 | 14 | 2.0 | 3.0 | 0.00 | 0.00 | 0.00 | 29 | 1024.0 |
| 20260507161649 | 62 | 90 | 1.0 | 3.0 | 0.00 | 0.00 | 0.00 | 27 | 1024.2 |
| 20260507161146 | 62 | 66 | 1.0 | 3.0 | 0.00 | 0.00 | 0.00 | 29 | 1024.1 |
| 20260507160643 | 62 | 46 | 2.0 | 4.0 | 0.00 | 0.00 | 0.00 | 30 | 1024.1 |
| 20260507160141 | 62 | 41 | 2.0 | 4.0 | 0.00 | 0.00 | 0.00 | 31 | 1024.1 |
| 20260507155641 | 61 | 54 | 1.0 | 4.0 | 0.00 | 0.00 | 0.00 | 31 | 1024.0 |
| 20260507155143 | 61 | 20 | 1.0 | 4.0 | 0.00 | 0.00 | 0.00 | 31 | 1024.1 |
| 20260507154641 | 61 | 56 | 1.0 | 4.0 | 0.00 | 0.00 | 0.00 | 29 | 1024.1 |
| 20260507154200 | 61 | 41 | 1.0 | 4.0 | 0.00 | 0.00 | 0.00 | 31 | 1024.0 |
| 20260507153657 | 61 | 44 | 1.0 | 4.0 | 0.00 | 0.00 | 0.00 | 31 | 1024.1 |
| 20260507153133 | 61 | 56 | 1.0 | 4.0 | 0.00 | 0.00 | 0.00 | 30 | 1024.1 |
| 20260507152631 | 61 | 72 | 1.0 | 2.0 | 0.00 | 0.00 | 0.00 | 31 | 1024.1 |
| 20260507152149 | 61 | 74 | 0.0 | 2.0 | 0.00 | 0.00 | 0.00 | 31 | 1024.0 |
| 20260507151646 | 61 | 125 | 0.0 | 2.0 | 0.00 | 0.00 | 0.00 | 31 | 1024.1 |
| 20260507151204 | 61 | 59 | 1.0 | 2.0 | 0.00 | 0.00 | 0.00 | 31 | 1024.0 |
| 20260507150641 | 61 | 26 | 0.0 | 1.0 | 0.00 | 0.00 | 0.00 | 33 | 1024.0 |
| 20260507150139 | 60 | 26 | 0.0 | 1.0 | 0.00 | 0.00 | 0.00 | 33 | 1023.9 |
| 20260507145639 | 60 | 27 | 0.0 | 1.0 | 0.00 | 0.00 | 0.00 | 34 | 1023.9 |
| 20260507145137 | 59 | 26 | 0.0 | 1.0 | 0.00 | 0.00 | 0.00 | 35 | 1024.0 |
| 20260507144634 | 58 | 26 | 0.0 | 1.0 | 0.00 | 0.00 | 0.00 | 36 | 1024.0 |
| 20260507144154 | 57 | 27 | 0.0 | 0.0 | 0.00 | 0.00 | 0.00 | 36 | 1023.9 |
| 20260507143630 | 56 | 250 | 0.0 | 1.0 | 0.00 | 0.00 | 0.00 | 37 | 1023.9 |
| 20260507143148 | 55 | 250 | 0.0 | 1.0 | 0.00 | 0.00 | 0.00 | 40 | 1023.9 |
| 20260507142646 | 55 | 250 | 0.0 | 0.0 | 0.00 | 0.00 | 0.00 | 39 | 1023.9 |
| 20260507142204 | 54 | 250 | 0.0 | 0.0 | 0.00 | 0.00 | 0.00 | 42 | 1023.9 |
| 20260507141641 | 53 | 250 | 0.0 | 0.0 | 0.00 | 0.00 | 0.00 | 41 | 1023.8 |
| 20260507141143 | 52 | 250 | 0.0 | 0.0 | 0.00 | 0.00 | 0.00 | 44 | 1023.7 |
| 20260507140641 | 52 | 250 | 0.0 | 0.0 | 0.00 | 0.00 | 0.00 | 43 | 1023.7 |
| 20260507140139 | 51 | 250 | 0.0 | 0.0 | 0.00 | 0.00 | 0.00 | 43 | 1023.6 |
| 20260507135659 | 49 | 250 | 0.0 | 0.0 | 0.00 | 0.00 | 0.00 | 46 | 1023.6 |
| 20260507135135 | 49 | 250 | 0.0 | 0.0 | 0.00 | 0.00 | 0.00 | 47 | 1023.6 |
| 20260507134633 | 49 | 250 | 0.0 | 0.0 | 0.00 | 0.00 | 0.00 | 45 | 1023.6 |
| 20260507134131 | 48 | 250 | 0.0 | 0.0 | 0.00 | 0.00 | 0.00 | 45 | 1023.5 |
| 20260507133709 | 48 | 250 | 0.0 | 0.0 | 0.00 | 0.00 | 0.00 | 46 | 1023.5 |
| 20260507133206 | 48 | 250 | 0.0 | 0.0 | 0.00 | 0.00 | 0.00 | 45 | 1023.5 |
| 20260507132703 | 47 | 250 | 0.0 | 0.0 | 0.00 | 0.00 | 0.00 | 46 | 1023.4 |
| 20260507132140 | 47 | 250 | 0.0 | 0.0 | 0.00 | 0.00 | 0.00 | 47 | 1023.3 |
| 20260507131637 | 47 | 250 | 0.0 | 0.0 | 0.00 | 0.00 | 0.00 | 46 | 1023.3 |
| 20260507131136 | 47 | 250 | 0.0 | 0.0 | 0.00 | 0.00 | 0.00 | 46 | 1023.3 |
| 20260507130633 | 47 | 250 | 0.0 | 0.0 | 0.00 | 0.00 | 0.00 | 45 | 1023.2 |
| 20260507130131 | 47 | 250 | 0.0 | 0.0 | 0.00 | 0.00 | 0.00 | 46 | 1023.2 |
| 20260507125711 | 46 | 250 | 0.0 | 0.0 | 0.00 | 0.00 | 0.00 | 47 | 1023.1 |
| 20260507124645 | 45 | 250 | 0.0 | 1.0 | 0.00 | 0.00 | 0.00 | 49 | 1023.1 |
| 20260507124143 | 45 | 250 | 0.0 | 1.0 | 0.00 | 0.00 | 0.00 | 49 | 1023.1 |
| 20260507123641 | 45 | 250 | 0.0 | 1.0 | 0.00 | 0.00 | 0.00 | 50 | 1023.0 |
| 20260507123142 | 45 | 250 | 0.0 | 1.0 | 0.00 | 0.00 | 0.00 | 49 | 1023.0 |
| 20260507122639 | 45 | 250 | 0.0 | 1.0 | 0.00 | 0.00 | 0.00 | 49 | 1023.0 |
| 20260507122138 | 44 | 250 | 0.0 | 1.0 | 0.00 | 0.00 | 0.00 | 49 | 1023.0 |
| 20260507121635 | 45 | 250 | 0.0 | 1.0 | 0.00 | 0.00 | 0.00 | 49 | 1023.1 |
| 20260507121132 | 45 | 250 | 0.0 | 0.0 | 0.00 | 0.00 | 0.00 | 48 | 1023.1 |
| 20260507120650 | 45 | 250 | 0.0 | 0.0 | 0.00 | 0.00 | 0.00 | 48 | 1023.1 |
| 20260507120148 | 45 | 250 | 0.0 | 1.0 | 0.00 | 0.00 | 0.00 | 48 | 1023.1 |
| 20260507115647 | 45 | 250 | 0.0 | 1.0 | 0.00 | 0.00 | 0.00 | 49 | 1023.1 |
| 20260507115144 | 44 | 250 | 0.0 | 1.0 | 0.00 | 0.00 | 0.00 | 49 | 1023.1 |
| 20260507114643 | 44 | 250 | 0.0 | 1.0 | 0.00 | 0.00 | 0.00 | 49 | 1023.1 |
| 20260507114141 | 45 | 250 | 0.0 | 1.0 | 0.00 | 0.00 | 0.00 | 49 | 1023.1 |
| 20260507113639 | 44 | 250 | 0.0 | 1.0 | 0.00 | 0.00 | 0.00 | 49 | 1023.2 |
| 20260507113136 | 44 | 250 | 0.0 | 1.0 | 0.00 | 0.00 | 0.00 | 50 | 1023.1 |
| 20260507112634 | 44 | 250 | 0.0 | 1.0 | 0.00 | 0.00 | 0.00 | 50 | 1023.1 |
| 20260507112136 | 44 | 250 | 0.0 | 1.0 | 0.00 | 0.00 | 0.00 | 50 | 1023.2 |
| 20260507111633 | 44 | 250 | 0.0 | 1.0 | 0.00 | 0.00 | 0.00 | 50 | 1023.2 |
| 20260507111150 | 44 | 250 | 0.0 | 1.0 | 0.00 | 0.00 | 0.00 | 51 | 1023.3 |
| 20260507110648 | 44 | 250 | 0.0 | 1.0 | 0.00 | 0.00 | 0.00 | 51 | 1023.3 |
| 20260507110146 | 44 | 250 | 0.0 | 1.0 | 0.00 | 0.00 | 0.00 | 51 | 1023.2 |
| 20260507105645 | 44 | 250 | 0.0 | 1.0 | 0.00 | 0.00 | 0.00 | 51 | 1023.3 |
| 20260507105141 | 44 | 250 | 0.0 | 1.0 | 0.00 | 0.00 | 0.00 | 51 | 1023.2 |
| 20260507104639 | 44 | 250 | 0.0 | 1.0 | 0.00 | 0.00 | 0.00 | 52 | 1023.2 |
| 20260507104138 | 43 | 250 | 0.0 | 1.0 | 0.00 | 0.00 | 0.00 | 53 | 1023.2 |
| 20260507103636 | 43 | 250 | 0.0 | 1.0 | 0.00 | 0.00 | 0.00 | 53 | 1023.2 |
| 20260507103134 | 44 | 250 | 0.0 | 1.0 | 0.00 | 0.00 | 0.00 | 53 | 1023.2 |
| 20260507102632 | 43 | 250 | 0.0 | 0.0 | 0.00 | 0.00 | 0.00 | 53 | 1023.3 |
| 20260507102150 | 43 | 250 | 0.0 | 0.0 | 0.00 | 0.00 | 0.00 | 53 | 1023.3 |
| 20260507101648 | 43 | 250 | 0.0 | 0.0 | 0.00 | 0.00 | 0.00 | 52 | 1023.3 |
| 20260507101146 | 43 | 250 | 0.0 | 0.0 | 0.00 | 0.00 | 0.00 | 52 | 1023.3 |
| 20260507100648 | 43 | 250 | 0.0 | 0.0 | 0.00 | 0.00 | 0.00 | 53 | 1023.3 |
| 20260507100146 | 43 | 250 | 0.0 | 0.0 | 0.00 | 0.00 | 0.00 | 51 | 1023.3 |
| 20260507095645 | 44 | 250 | 0.0 | 0.0 | 0.00 | 0.00 | 0.00 | 52 | 1023.3 |
| 20260507095143 | 44 | 250 | 0.0 | 1.0 | 0.00 | 0.00 | 0.00 | 48 | 1023.3 |
| 20260507094640 | 45 | 250 | 0.0 | 1.0 | 0.00 | 0.00 | 0.00 | 47 | 1023.2 |
| 20260507094139 | 45 | 250 | 0.0 | 1.0 | 0.00 | 0.00 | 0.00 | 47 | 1023.3 |
| 20260507093657 | 44 | 250 | 0.0 | 1.0 | 0.00 | 0.00 | 0.00 | 47 | 1023.3 |
| 20260507093134 | 44 | 243 | 0.0 | 1.0 | 0.00 | 0.00 | 0.00 | 47 | 1023.3 |
| 20260507092652 | 44 | 243 | 1.0 | 1.0 | 0.00 | 0.00 | 0.00 | 47 | 1023.3 |
| 20260507092149 | 44 | 210 | 0.0 | 1.0 | 0.00 | 0.00 | 0.00 | 47 | 1023.3 |
| 20260507091646 | 44 | 210 | 0.0 | 1.0 | 0.00 | 0.00 | 0.00 | 48 | 1023.3 |
| 20260507091144 | 43 | 205 | 0.0 | 0.0 | 0.00 | 0.00 | 0.00 | 48 | 1023.3 |
| 20260507090642 | 44 | 205 | 0.0 | 1.0 | 0.00 | 0.00 | 0.00 | 46 | 1023.3 |
| 20260507090140 | 44 | 205 | 0.0 | 1.0 | 0.00 | 0.00 | 0.00 | 46 | 1023.3 |
| 20260507085640 | 44 | 205 | 0.0 | 0.0 | 0.00 | 0.00 | 0.00 | 46 | 1023.3 |
| 20260507085142 | 45 | 205 | 0.0 | 0.0 | 0.00 | 0.00 | 0.00 | 45 | 1023.4 |
| 20260507084640 | 45 | 205 | 0.0 | 0.0 | 0.00 | 0.00 | 0.00 | 44 | 1023.4 |
| 20260507084139 | 46 | 205 | 0.0 | 0.0 | 0.00 | 0.00 | 0.00 | 44 | 1023.5 |
| 20260507083657 | 46 | 205 | 0.0 | 0.0 | 0.00 | 0.00 | 0.00 | 44 | 1023.4 |
| 20260507083133 | 45 | 205 | 0.0 | 0.0 | 0.00 | 0.00 | 0.00 | 44 | 1023.5 |
| 20260507082711 | 45 | 205 | 0.0 | 0.0 | 0.00 | 0.00 | 0.00 | 44 | 1023.5 |
| 20260507082148 | 45 | 205 | 0.0 | 0.0 | 0.00 | 0.00 | 0.00 | 44 | 1023.4 |
| 20260507081645 | 45 | 205 | 0.0 | 0.0 | 0.00 | 0.00 | 0.00 | 44 | 1023.4 |
| 20260507081203 | 45 | 205 | 0.0 | 0.0 | 0.00 | 0.00 | 0.00 | 44 | 1023.4 |
| 20260507080640 | 45 | 205 | 0.0 | 0.0 | 0.00 | 0.00 | 0.00 | 43 | 1023.5 |
| 20260507080138 | 46 | 205 | 0.0 | 0.0 | 0.00 | 0.00 | 0.00 | 43 | 1023.4 |
| 20260507075657 | 46 | 205 | 0.0 | 0.0 | 0.00 | 0.00 | 0.00 | 43 | 1023.5 |
| 20260507075133 | 46 | 205 | 0.0 | 0.0 | 0.00 | 0.00 | 0.00 | 43 | 1023.5 |
| 20260507074652 | 46 | 205 | 0.0 | 0.0 | 0.00 | 0.00 | 0.00 | 43 | 1023.5 |
| 20260507074150 | 46 | 205 | 0.0 | 0.0 | 0.00 | 0.00 | 0.00 | 42 | 1023.4 |
| 20260507073647 | 46 | 205 | 0.0 | 0.0 | 0.00 | 0.00 | 0.00 | 42 | 1023.4 |
| 20260507073144 | 46 | 205 | 0.0 | 0.0 | 0.00 | 0.00 | 0.00 | 42 | 1023.4 |
| 20260507072642 | 46 | 205 | 0.0 | 0.0 | 0.00 | 0.00 | 0.00 | 43 | 1023.4 |
| 20260507072140 | 46 | 205 | 0.0 | 0.0 | 0.00 | 0.00 | 0.00 | 43 | 1023.4 |
| 20260507071641 | 46 | 205 | 0.0 | 0.0 | 0.00 | 0.00 | 0.00 | 43 | 1023.5 |
| 20260507071159 | 46 | 205 | 0.0 | 0.0 | 0.00 | 0.00 | 0.00 | 43 | 1023.5 |
| 20260507070636 | 46 | 205 | 0.0 | 0.0 | 0.00 | 0.00 | 0.00 | 43 | 1023.5 |
| 20260507070133 | 46 | 205 | 0.0 | 0.0 | 0.00 | 0.00 | 0.00 | 43 | 1023.5 |
| 20260507065653 | 46 | 205 | 0.0 | 0.0 | 0.00 | 0.00 | 0.00 | 43 | 1023.5 |
| 20260507065150 | 46 | 205 | 0.0 | 0.0 | 0.00 | 0.00 | 0.00 | 43 | 1023.5 |
| 20260507064648 | 46 | 205 | 0.0 | 0.0 | 0.00 | 0.00 | 0.00 | 43 | 1023.5 |
| 20260507064146 | 46 | 205 | 0.0 | 0.0 | 0.00 | 0.00 | 0.00 | 43 | 1023.5 |
| 20260507063643 | 46 | 205 | 0.0 | 0.0 | 0.00 | 0.00 | 0.00 | 42 | 1023.5 |
| 20260507063141 | 46 | 205 | 0.0 | 0.0 | 0.00 | 0.00 | 0.00 | 42 | 1023.5 |
| 20260507062638 | 46 | 205 | 0.0 | 0.0 | 0.00 | 0.00 | 0.00 | 42 | 1023.4 |
| 20260507062137 | 46 | 205 | 0.0 | 0.0 | 0.00 | 0.00 | 0.00 | 42 | 1023.4 |
| 20260507061634 | 46 | 205 | 0.0 | 0.0 | 0.00 | 0.00 | 0.00 | 43 | 1023.3 |
| 20260507061213 | 47 | 205 | 0.0 | 0.0 | 0.00 | 0.00 | 0.00 | 42 | 1023.4 |
| 20260507060649 | 48 | 205 | 0.0 | 0.0 | 0.00 | 0.00 | 0.00 | 41 | 1023.4 |
| 20260507060147 | 48 | 205 | 0.0 | 0.0 | 0.00 | 0.00 | 0.00 | 39 | 1023.3 |
| 20260507055647 | 49 | 205 | 0.0 | 1.0 | 0.00 | 0.00 | 0.00 | 38 | 1023.3 |
| 20260507055148 | 48 | 205 | 0.0 | 1.0 | 0.00 | 0.00 | 0.00 | 40 | 1023.2 |
| 20260507054706 | 48 | 205 | 0.0 | 0.0 | 0.00 | 0.00 | 0.00 | 40 | 1023.2 |
| 20260507054142 | 48 | 205 | 0.0 | 0.0 | 0.00 | 0.00 | 0.00 | 42 | 1023.2 |
| 20260507053639 | 48 | 205 | 0.0 | 1.0 | 0.00 | 0.00 | 0.00 | 42 | 1023.1 |
| 20260507053137 | 48 | 205 | 0.0 | 1.0 | 0.00 | 0.00 | 0.00 | 42 | 1023.2 |
| 20260507052655 | 48 | 184 | 0.0 | 0.0 | 0.00 | 0.00 | 0.00 | 42 | 1023.1 |
| 20260507052152 | 48 | 184 | 0.0 | 0.0 | 0.00 | 0.00 | 0.00 | 42 | 1023.1 |
| 20260507051649 | 48 | 184 | 0.0 | 0.0 | 0.00 | 0.00 | 0.00 | 42 | 1023.3 |
| 20260507051146 | 48 | 184 | 0.0 | 0.0 | 0.00 | 0.00 | 0.00 | 43 | 1023.2 |
| 20260507050644 | 48 | 184 | 0.0 | 0.0 | 0.00 | 0.00 | 0.00 | 43 | 1023.2 |
| 20260507050141 | 48 | 184 | 0.0 | 0.0 | 0.00 | 0.00 | 0.00 | 43 | 1023.1 |
| 20260507045639 | 48 | 184 | 0.0 | 1.0 | 0.00 | 0.00 | 0.00 | 43 | 1023.1 |
| 20260507045136 | 47 | 184 | 0.0 | 1.0 | 0.00 | 0.00 | 0.00 | 44 | 1023.1 |
| 20260507044634 | 47 | 222 | 0.0 | 1.0 | 0.00 | 0.00 | 0.00 | 43 | 1023.2 |
| 20260507044213 | 47 | 222 | 0.0 | 1.0 | 0.00 | 0.00 | 0.00 | 43 | 1023.2 |
| 20260507043649 | 47 | 191 | 0.0 | 0.0 | 0.00 | 0.00 | 0.00 | 43 | 1023.2 |
| 20260507043207 | 47 | 191 | 0.0 | 0.0 | 0.00 | 0.00 | 0.00 | 43 | 1023.2 |
| 20260507042148 | 47 | 240 | 0.0 | 1.0 | 0.00 | 0.00 | 0.00 | 43 | 1023.1 |
| 20260507041650 | 48 | 245 | 0.0 | 1.0 | 0.00 | 0.00 | 0.00 | 43 | 1023.1 |
| 20260507041148 | 48 | 245 | 0.0 | 1.0 | 0.00 | 0.00 | 0.00 | 43 | 1023.0 |
| 20260507040645 | 48 | 342 | 0.0 | 0.0 | 0.00 | 0.00 | 0.00 | 43 | 1022.9 |
| 20260507040203 | 48 | 342 | 0.0 | 0.0 | 0.00 | 0.00 | 0.00 | 43 | 1022.9 |
| 20260507035640 | 48 | 342 | 0.0 | 0.0 | 0.00 | 0.00 | 0.00 | 43 | 1022.9 |
| 20260507035138 | 48 | 342 | 0.0 | 0.0 | 0.00 | 0.00 | 0.00 | 43 | 1022.9 |
| 20260507034636 | 48 | 342 | 0.0 | 0.0 | 0.00 | 0.00 | 0.00 | 44 | 1022.8 |
| 20260507034154 | 48 | 342 | 0.0 | 0.0 | 0.00 | 0.00 | 0.00 | 43 | 1022.7 |
| 20260507033652 | 48 | 342 | 0.0 | 0.0 | 0.00 | 0.00 | 0.00 | 43 | 1022.7 |
| 20260507033150 | 48 | 342 | 0.0 | 0.0 | 0.00 | 0.00 | 0.00 | 44 | 1022.6 |
| 20260507032648 | 48 | 342 | 0.0 | 0.0 | 0.00 | 0.00 | 0.00 | 44 | 1022.7 |
| 20260507032146 | 49 | 342 | 0.0 | 1.0 | 0.00 | 0.00 | 0.00 | 43 | 1022.6 |
| 20260507031644 | 49 | 342 | 0.0 | 1.0 | 0.00 | 0.00 | 0.00 | 43 | 1022.6 |
| 20260507031141 | 49 | 341 | 0.0 | 0.0 | 0.00 | 0.00 | 0.00 | 42 | 1022.4 |
| 20260507030639 | 50 | 341 | 0.0 | 0.0 | 0.00 | 0.00 | 0.00 | 42 | 1022.4 |
| 20260507030141 | 50 | 341 | 0.0 | 1.0 | 0.00 | 0.00 | 0.00 | 41 | 1022.4 |
| 20260507025640 | 51 | 341 | 0.0 | 1.0 | 0.00 | 0.00 | 0.00 | 40 | 1022.4 |
| 20260507025138 | 52 | 341 | 0.0 | 1.0 | 0.00 | 0.00 | 0.00 | 39 | 1022.3 |
| 20260507024636 | 52 | 342 | 0.0 | 3.0 | 0.00 | 0.00 | 0.00 | 39 | 1022.2 |
| 20260507024214 | 52 | 51 | 1.0 | 3.0 | 0.00 | 0.00 | 0.00 | 39 | 1022.2 |
| 20260507023711 | 52 | 1 | 0.0 | 1.0 | 0.00 | 0.00 | 0.00 | 38 | 1022.1 |
| 20260507023146 | 53 | 1 | 0.0 | 3.0 | 0.00 | 0.00 | 0.00 | 37 | 1022.1 |
| 20260507022644 | 53 | 3 | 0.0 | 3.0 | 0.00 | 0.00 | 0.00 | 36 | 1021.9 |
| 20260507022142 | 53 | 20 | 0.0 | 2.0 | 0.00 | 0.00 | 0.00 | 35 | 1021.9 |
| 20260507021641 | 54 | 63 | 0.0 | 3.0 | 0.00 | 0.00 | 0.00 | 34 | 1021.9 |
| 20260507021139 | 54 | 51 | 1.0 | 5.0 | 0.00 | 0.00 | 0.00 | 34 | 1021.8 |
| 20260507020637 | 54 | 65 | 2.0 | 5.0 | 0.00 | 0.00 | 0.00 | 34 | 1021.9 |
| 20260507020215 | 54 | 63 | 2.0 | 5.0 | 0.00 | 0.00 | 0.00 | 34 | 1021.7 |
| 20260507015654 | 55 | 24 | 3.0 | 5.0 | 0.00 | 0.00 | 0.00 | 34 | 1021.7 |
| 20260507015152 | 55 | 65 | 2.0 | 6.0 | 0.00 | 0.00 | 0.00 | 34 | 1021.8 |
| 20260507014649 | 55 | 54 | 2.0 | 6.0 | 0.00 | 0.00 | 0.00 | 33 | 1021.7 |
| 20260507014149 | 55 | 41 | 1.0 | 4.0 | 0.00 | 0.00 | 0.00 | 33 | 1021.8 |
| 20260507013646 | 55 | 46 | 1.0 | 6.0 | 0.00 | 0.00 | 0.00 | 32 | 1021.7 |
| 20260507013148 | 55 | 63 | 2.0 | 6.0 | 0.00 | 0.00 | 0.00 | 32 | 1021.7 |
| 20260507012645 | 55 | 59 | 2.0 | 7.0 | 0.00 | 0.00 | 0.00 | 31 | 1021.7 |
| 20260507012143 | 55 | 16 | 2.0 | 6.0 | 0.00 | 0.00 | 0.00 | 29 | 1021.7 |
| 20260507011641 | 55 | 38 | 2.0 | 5.0 | 0.00 | 0.00 | 0.00 | 28 | 1021.7 |
| 20260507011138 | 55 | 50 | 2.0 | 3.0 | 0.00 | 0.00 | 0.00 | 27 | 1021.7 |
| 20260507010657 | 55 | 49 | 1.0 | 5.0 | 0.00 | 0.00 | 0.00 | 26 | 1021.7 |
| 20260507010154 | 56 | 4 | 3.0 | 6.0 | 0.00 | 0.00 | 0.00 | 26 | 1021.7 |
| 20260507005651 | 56 | 9 | 2.0 | 6.0 | 0.00 | 0.00 | 0.00 | 29 | 1021.5 |
| 20260507005149 | 56 | 350 | 3.0 | 5.0 | 0.00 | 0.00 | 0.00 | 28 | 1021.7 |
| 20260507004648 | 56 | 32 | 3.0 | 6.0 | 0.00 | 0.00 | 0.00 | 26 | 1021.6 |
| 20260507004145 | 56 | 36 | 3.0 | 6.0 | 0.00 | 0.00 | 0.00 | 28 | 1021.7 |
| 20260507003643 | 56 | 45 | 2.0 | 7.0 | 0.00 | 0.00 | 0.00 | 31 | 1021.5 |
| 20260507003141 | 56 | 72 | 2.0 | 7.0 | 0.00 | 0.00 | 0.00 | 32 | 1021.5 |
| 20260507002637 | 56 | 43 | 3.0 | 5.0 | 0.00 | 0.00 | 0.00 | 33 | 1021.6 |
| 20260507002155 | 56 | 44 | 3.0 | 7.0 | 0.00 | 0.00 | 0.00 | 34 | 1021.5 |
| 20260507001713 | 56 | 58 | 4.0 | 7.0 | 0.00 | 0.00 | 0.00 | 34 | 1021.6 |
| 20260507001209 | 56 | 35 | 2.0 | 8.0 | 0.00 | 0.00 | 0.00 | 34 | 1021.4 |
| 20260507000647 | 57 | 76 | 5.0 | 8.0 | 0.00 | 0.00 | 0.00 | 34 | 1021.4 |
| 20260507000149 | 57 | 46 | 3.0 | 7.0 | 0.00 | 0.00 | 0.00 | 34 | 1021.4 |
| 20260506235646 | 57 | 5 | 4.0 | 7.0 | 0.00 | 0.00 | 0.00 | 34 | 1021.4 |
| 20260506235204 | 57 | 41 | 3.0 | 6.0 | 0.00 | 0.00 | 0.00 | 35 | 1021.3 |
| 20260506234641 | 57 | 18 | 3.0 | 5.0 | 0.00 | 0.00 | 0.00 | 35 | 1021.2 |
| 20260506234140 | 57 | 65 | 2.0 | 5.0 | 0.00 | 0.00 | 0.00 | 36 | 1021.2 |
| 20260506233637 | 57 | 32 | 3.0 | 7.0 | 0.00 | 0.00 | 0.00 | 37 | 1021.2 |
| 20260506233156 | 57 | 356 | 2.0 | 7.0 | 0.00 | 0.00 | 0.00 | 38 | 1021.2 |
| 20260506232653 | 57 | 45 | 4.0 | 7.0 | 0.00 | 0.00 | 0.00 | 37 | 1021.3 |
| 20260506232151 | 57 | 20 | 3.0 | 7.0 | 0.00 | 0.00 | 0.00 | 39 | 1021.2 |
| 20260506231648 | 57 | 92 | 2.0 | 8.0 | 0.00 | 0.00 | 0.00 | 38 | 1021.2 |
| 20260506231206 | 57 | 344 | 4.0 | 8.0 | 0.00 | 0.00 | 0.00 | 40 | 1021.3 |
| 20260506230643 | 57 | 63 | 3.0 | 9.0 | 0.00 | 0.00 | 0.00 | 40 | 1021.2 |
| 20260506230141 | 57 | 50 | 4.0 | 9.0 | 0.00 | 0.00 | 0.00 | 39 | 1021.4 |
| 20260506225639 | 57 | 60 | 4.0 | 7.0 | 0.00 | 0.00 | 0.00 | 38 | 1021.2 |
| 20260506225137 | 57 | 41 | 4.0 | 7.0 | 0.00 | 0.00 | 0.00 | 39 | 1021.3 |
| 20260506224654 | 57 | 356 | 3.0 | 6.0 | 0.00 | 0.00 | 0.00 | 38 | 1021.3 |
| 20260506224153 | 57 | 49 | 3.0 | 5.0 | 0.00 | 0.00 | 0.00 | 37 | 1021.3 |
| 20260506223654 | 57 | 50 | 1.0 | 8.0 | 0.00 | 0.00 | 0.00 | 40 | 1021.4 |
| 20260506223213 | 57 | 44 | 4.0 | 8.0 | 0.00 | 0.00 | 0.00 | 39 | 1021.4 |
| 20260506222649 | 57 | 44 | 1.0 | 8.0 | 0.00 | 0.00 | 0.00 | 37 | 1021.5 |
| 20260506222147 | 57 | 39 | 1.0 | 8.0 | 0.00 | 0.00 | 0.00 | 40 | 1021.5 |
| 20260506221645 | 57 | 39 | 2.0 | 8.0 | 0.00 | 0.00 | 0.00 | 38 | 1021.5 |
| 20260506221143 | 57 | 67 | 3.0 | 7.0 | 0.00 | 0.00 | 0.00 | 36 | 1021.6 |
| 20260506220641 | 57 | 60 | 3.0 | 7.0 | 0.00 | 0.00 | 0.00 | 36 | 1021.7 |
| 20260506220139 | 57 | 46 | 3.0 | 6.0 | 0.00 | 0.00 | 0.00 | 40 | 1021.7 |
| 20260506215638 | 56 | 46 | 2.0 | 7.0 | 0.00 | 0.00 | 0.00 | 41 | 1021.7 |
| 20260506215157 | 56 | 61 | 3.0 | 7.0 | 0.00 | 0.00 | 0.00 | 41 | 1021.7 |
| 20260506214655 | 56 | 360 | 3.0 | 6.0 | 0.00 | 0.00 | 0.00 | 41 | 1021.8 |
| 20260506214153 | 57 | 44 | 2.0 | 7.0 | 0.00 | 0.00 | 0.00 | 40 | 1021.8 |
| 20260506213649 | 57 | 65 | 4.0 | 7.0 | 0.00 | 0.00 | 0.00 | 39 | 1021.9 |
| 20260506213147 | 57 | 44 | 3.0 | 8.0 | 0.00 | 0.00 | 0.00 | 40 | 1021.8 |
| 20260506212645 | 57 | 35 | 4.0 | 8.0 | 0.00 | 0.00 | 0.00 | 39 | 1021.9 |
| 20260506212147 | 57 | 51 | 1.0 | 8.0 | 0.00 | 0.00 | 0.00 | 38 | 1021.9 |
| 20260506211644 | 57 | 129 | 3.0 | 8.0 | 0.00 | 0.00 | 0.00 | 39 | 1021.8 |
| 20260506211203 | 56 | 98 | 5.0 | 11.0 | 0.00 | 0.00 | 0.00 | 39 | 1021.8 |
| 20260506210639 | 56 | 334 | 4.0 | 11.0 | 0.00 | 0.00 | 0.00 | 39 | 1021.9 |
| 20260506210157 | 56 | 49 | 4.0 | 10.0 | 0.00 | 0.00 | 0.00 | 40 | 1021.9 |
| 20260506205717 | 57 | 56 | 2.0 | 7.0 | 0.00 | 0.00 | 0.00 | 40 | 1021.9 |
| 20260506205154 | 57 | 57 | 3.0 | 7.0 | 0.00 | 0.00 | 0.00 | 40 | 1021.7 |
| 20260506204652 | 57 | 49 | 4.0 | 6.0 | 0.00 | 0.00 | 0.00 | 39 | 1021.9 |
| 20260506204151 | 57 | 69 | 2.0 | 6.0 | 0.00 | 0.00 | 0.00 | 40 | 1021.8 |
| 20260506203649 | 57 | 8 | 3.0 | 7.0 | 0.00 | 0.00 | 0.00 | 40 | 1021.8 |
| 20260506203147 | 57 | 70 | 4.0 | 7.0 | 0.00 | 0.00 | 0.00 | 40 | 1021.7 |
| 20260506202644 | 56 | 15 | 4.0 | 7.0 | 0.00 | 0.00 | 0.00 | 40 | 1021.8 |
| 20260506202142 | 56 | 49 | 3.0 | 7.0 | 0.00 | 0.00 | 0.00 | 40 | 1021.7 |
| 20260506201640 | 56 | 46 | 4.0 | 9.0 | 0.00 | 0.00 | 0.00 | 41 | 1021.8 |
| 20260506201138 | 56 | 63 | 3.0 | 9.0 | 0.00 | 0.00 | 0.00 | 41 | 1021.8 |
| 20260506200656 | 56 | 46 | 4.0 | 7.0 | 0.00 | 0.00 | 0.00 | 40 | 1021.8 |
| 20260506200214 | 56 | 42 | 3.0 | 6.0 | 0.00 | 0.00 | 0.00 | 41 | 1021.8 |
| 20260506195651 | 57 | 45 | 3.0 | 7.0 | 0.00 | 0.00 | 0.00 | 41 | 1021.9 |
| 20260506195153 | 56 | 104 | 3.0 | 7.0 | 0.00 | 0.00 | 0.00 | 42 | 1021.9 |
| 20260506194650 | 56 | 15 | 2.0 | 7.0 | 0.00 | 0.00 | 0.00 | 41 | 1021.8 |
| 20260506194149 | 56 | 44 | 3.0 | 7.0 | 0.00 | 0.00 | 0.00 | 41 | 1021.8 |
| 20260506193647 | 56 | 53 | 2.0 | 7.0 | 0.00 | 0.00 | 0.00 | 42 | 1021.8 |